Time;durP1;ratioP1;P1;durP2;ratioP2;P2;SDS_P1;SDS_P2;PMS_P1;PMS_P2;Temp;Humidity;BMP_temperature;BMP_pressure;BME280_temperature;BME280_humidity;BME280_pressure;Samples;Min_cycle;Max_cycle;Signal;HPM_P1;HPM_P2
2023/04/15 00:00:47;;;;;;;24.10;14.40;;;;;;;10.28;85.42;98950.23;129399;1264;114986;-68
2023/04/15 00:03:51;;;;;;;22.10;16.10;;;;;;;10.30;85.19;98944.95;129518;1264;114743;-66
2023/04/15 00:06:53;;;;;;;19.40;14.30;;;;;;;10.29;85.50;98946.94;129814;1261;114779;-68
2023/04/15 00:09:56;;;;;;;25.00;16.60;;;;;;;10.29;85.46;98937.15;129745;1274;115398;-65
2023/04/15 00:12:58;;;;;;;23.20;15.10;;;;;;;10.28;85.43;98937.55;129828;1261;114798;-67
2023/04/15 00:16:01;;;;;;;21.20;14.70;;;;;;;10.28;85.40;98938.46;129714;1282;129560;-67
2023/04/15 00:19:03;;;;;;;20.30;14.70;;;;;;;10.28;85.41;98938.44;129658;1264;115148;-66
2023/04/15 00:22:05;;;;;;;20.00;14.30;;;;;;;10.28;85.22;98938.84;129704;1272;114849;-67
2023/04/15 00:25:08;;;;;;;19.80;14.30;;;;;;;10.27;85.26;98938.01;129739;1258;114655;-66
2023/04/15 00:28:10;;;;;;;19.60;14.50;;;;;;;10.26;85.59;98942.56;129581;1264;114757;-67
2023/04/15 00:31:13;;;;;;;19.30;13.90;;;;;;;10.25;85.20;98940.86;129701;1261;114753;-67
2023/04/15 00:34:18;;;;;;;22.90;15.80;;;;;;;10.22;85.10;98939.38;129627;1282;114778;-65
2023/04/15 00:37:20;;;;;;;20.10;14.50;;;;;;;10.19;85.13;98939.96;129420;1270;115237;-65
2023/04/15 00:40:23;;;;;;;21.00;14.70;;;;;;;10.15;85.14;98929.38;129628;1264;114859;-63
2023/04/15 00:43:26;;;;;;;17.50;13.80;;;;;;;10.11;85.34;98931.95;129691;1264;114929;-66
2023/04/15 00:46:30;;;;;;;19.50;14.30;;;;;;;10.07;85.07;98935.80;129708;1264;114731;-68
2023/04/15 00:49:32;;;;;;;18.50;13.20;;;;;;;10.04;85.05;98939.55;129563;1264;115172;-68
2023/04/15 00:52:33;;;;;;;20.70;14.30;;;;;;;10.03;85.28;98939.81;129747;1263;114670;-65
2023/04/15 00:55:36;;;;;;;21.10;13.90;;;;;;;10.03;85.38;98942.00;129434;1264;115213;-66
2023/04/15 00:58:39;;;;;;;17.50;14.00;;;;;;;10.04;85.54;98949.52;129843;1262;114777;-67
2023/04/15 01:01:41;;;;;;;20.10;14.70;;;;;;;10.06;85.23;98952.48;129763;1271;114721;-67
2023/04/15 01:04:44;;;;;;;20.90;14.60;;;;;;;10.08;85.32;98949.29;129737;1282;114754;-67
2023/04/15 01:07:47;;;;;;;20.90;15.00;;;;;;;10.11;85.28;98948.95;129743;1264;114714;-64
2023/04/15 01:10:49;;;;;;;18.50;14.50;;;;;;;10.12;85.39;98946.92;129631;1264;128543;-68
2023/04/15 01:13:51;;;;;;;22.50;15.50;;;;;;;10.13;85.15;98951.66;129775;1282;114819;-64
2023/04/15 01:16:54;;;;;;;22.70;15.60;;;;;;;10.13;85.05;98947.73;129679;1261;114771;-66
2023/04/15 01:19:59;;;;;;;20.20;15.60;;;;;;;10.14;84.93;98944.10;129851;1263;114723;-66
2023/04/15 01:23:01;;;;;;;21.90;15.50;;;;;;;10.14;85.07;98946.22;129498;1263;264975;-68
2023/04/15 01:26:04;;;;;;;19.20;13.80;;;;;;;10.14;85.19;98944.25;129738;1260;114734;-68
2023/04/15 01:29:07;;;;;;;24.70;15.30;;;;;;;10.15;85.35;98944.54;129761;1264;115108;-67
2023/04/15 01:32:09;;;;;;;20.50;13.90;;;;;;;10.15;85.14;98945.06;129661;1261;115031;-67
2023/04/15 01:35:12;;;;;;;23.00;15.30;;;;;;;10.16;85.24;98945.71;129735;1282;114643;-67
2023/04/15 01:38:14;;;;;;;20.70;13.90;;;;;;;10.16;85.03;98949.63;129474;1264;115622;-67
2023/04/15 01:41:18;;;;;;;27.00;16.40;;;;;;;10.16;85.02;98946.29;129612;1261;114785;-66
2023/04/15 01:44:21;;;;;;;25.80;15.80;;;;;;;10.15;84.91;98951.45;129473;1267;114833;-67
2023/04/15 01:47:23;;;;;;;45.40;19.90;;;;;;;10.15;84.95;98948.80;129758;1263;115184;-64
2023/04/15 01:50:26;;;;;;;32.70;15.70;;;;;;;10.15;84.72;98953.23;129711;1276;115173;-67
2023/04/15 01:53:28;;;;;;;36.00;16.60;;;;;;;10.14;84.82;98949.59;129711;1271;115435;-68
2023/04/15 01:56:30;;;;;;;30.50;16.30;;;;;;;10.15;84.88;98958.66;129704;1264;116517;-67
2023/04/15 01:59:32;;;;;;;39.00;18.30;;;;;;;10.15;84.78;98956.52;129791;1261;114722;-67
2023/04/15 02:02:34;;;;;;;43.30;19.20;;;;;;;10.12;84.81;98964.17;129685;1263;114744;-66
2023/04/15 02:05:36;;;;;;;37.40;18.40;;;;;;;10.10;84.96;98962.01;129702;1264;114856;-65
2023/04/15 02:08:38;;;;;;;31.60;17.50;;;;;;;10.08;84.98;98963.38;129808;1261;114718;-66
2023/04/15 02:11:41;;;;;;;26.60;17.40;;;;;;;10.08;85.00;98963.39;129622;1282;129007;-64
2023/04/15 02:14:43;;;;;;;25.40;15.00;;;;;;;10.08;85.20;98967.51;129668;1260;114739;-67
2023/04/15 02:17:49;;;;;;;24.40;15.00;;;;;;;10.08;84.91;98968.80;129725;1263;114783;-68
2023/04/15 02:20:52;;;;;;;24.40;16.30;;;;;;;10.05;85.13;98971.08;129714;1282;114749;-67
2023/04/15 02:23:53;;;;;;;21.60;14.80;;;;;;;10.01;85.02;98971.15;129658;1260;114730;-64
2023/04/15 02:26:56;;;;;;;22.20;14.70;;;;;;;9.99;84.94;98969.74;129758;1264;114705;-67
2023/04/15 02:29:58;;;;;;;23.30;15.20;;;;;;;9.96;84.97;98974.89;129683;1265;114993;-67
2023/04/15 02:33:00;;;;;;;20.50;13.60;;;;;;;9.93;85.12;98969.59;129662;1265;114729;-67
2023/04/15 02:36:03;;;;;;;23.60;14.10;;;;;;;9.89;85.09;98971.63;129725;1282;114746;-67
2023/04/15 02:39:05;;;;;;;21.00;14.80;;;;;;;9.85;84.99;98977.81;129355;1282;115163;-67
2023/04/15 02:42:07;;;;;;;19.10;14.70;;;;;;;9.82;85.15;98974.84;129780;1264;114749;-67
2023/04/15 02:45:11;;;;;;;21.00;14.30;;;;;;;9.77;85.33;98976.35;129745;1260;114810;-67
2023/04/15 02:48:14;;;;;;;20.70;15.10;;;;;;;9.73;85.25;98982.70;129680;1264;114768;-67
2023/04/15 02:51:21;;;;;;;22.70;16.00;;;;;;;9.70;85.05;98985.41;129716;1261;114749;-66
2023/04/15 02:54:27;;;;;;;20.60;15.50;;;;;;;9.67;85.10;98984.55;129668;1271;128181;-65
2023/04/15 02:57:29;;;;;;;24.20;16.30;;;;;;;9.64;85.23;98984.55;129165;1282;115188;-65
2023/04/15 03:00:32;;;;;;;23.60;16.00;;;;;;;9.62;85.13;98985.73;129784;1261;114816;-66
2023/04/15 03:03:34;;;;;;;21.90;16.20;;;;;;;9.59;85.16;98987.40;129367;1272;114766;-67
2023/04/15 03:06:36;;;;;;;23.60;16.10;;;;;;;9.56;85.38;98991.65;129631;1259;114727;-65
2023/04/15 03:09:40;;;;;;;22.40;15.80;;;;;;;9.54;85.38;99004.98;129307;1267;114759;-67
2023/04/15 03:12:42;;;;;;;19.80;15.20;;;;;;;9.51;85.25;99010.73;129829;1272;114795;-68
2023/04/15 03:15:47;;;;;;;21.20;14.50;;;;;;;9.46;85.20;99018.20;129671;1260;114828;-66
2023/04/15 03:18:50;;;;;;;21.50;16.30;;;;;;;9.39;85.19;99024.13;129311;1264;114745;-65
2023/04/15 03:21:52;;;;;;;24.00;15.60;;;;;;;9.33;85.12;99026.89;129418;1271;114701;-66
2023/04/15 03:24:55;;;;;;;21.00;15.40;;;;;;;9.26;85.08;99022.28;129433;1263;114756;-66
2023/04/15 03:27:59;;;;;;;23.40;15.30;;;;;;;9.21;84.92;99026.35;129663;1258;114871;-65
2023/04/15 03:31:01;;;;;;;19.80;14.50;;;;;;;9.18;84.89;99027.11;129758;1264;114745;-65
2023/04/15 03:34:03;;;;;;;18.80;13.90;;;;;;;9.16;84.93;99035.77;129618;1264;114734;-65
2023/04/15 03:37:06;;;;;;;22.50;15.40;;;;;;;9.16;84.81;99042.38;129711;1259;115321;-66
2023/04/15 03:40:09;;;;;;;21.00;13.90;;;;;;;9.14;84.57;99047.69;129411;1263;114792;-66
2023/04/15 03:43:11;;;;;;;19.10;14.50;;;;;;;9.12;84.37;99048.69;129424;1271;115089;-65
2023/04/15 03:46:13;;;;;;;18.40;13.70;;;;;;;9.09;84.18;99060.09;129364;1264;114749;-66
2023/04/15 03:49:16;;;;;;;17.40;12.90;;;;;;;9.04;83.88;99073.75;129471;1264;114747;-65
2023/04/15 03:52:18;;;;;;;16.10;11.70;;;;;;;8.98;83.37;99076.45;129280;1282;115205;-65
2023/04/15 03:55:20;;;;;;;17.00;11.90;;;;;;;8.93;83.15;99087.83;129452;1259;114744;-65
2023/04/15 03:58:23;;;;;;;18.60;12.00;;;;;;;8.87;82.91;99084.77;129315;1272;114778;-65
2023/04/15 04:01:26;;;;;;;15.80;11.40;;;;;;;8.80;82.80;99085.90;129420;1261;116375;-66
2023/04/15 04:04:28;;;;;;;15.70;12.20;;;;;;;8.74;82.64;99090.39;129423;1263;116224;-67
2023/04/15 04:07:31;;;;;;;13.90;10.70;;;;;;;8.67;82.52;99097.95;129749;1263;114788;-65
2023/04/15 04:10:33;;;;;;;14.60;9.70;;;;;;;8.59;82.37;99104.99;129700;1261;114812;-65
2023/04/15 04:13:36;;;;;;;11.50;8.80;;;;;;;8.53;82.13;99103.27;129726;1263;114721;-67
2023/04/15 04:16:38;;;;;;;11.00;7.90;;;;;;;8.47;82.22;99102.52;129477;1267;114782;-66
2023/04/15 04:19:40;;;;;;;11.10;8.00;;;;;;;8.43;82.11;99109.91;129699;1264;114705;-66
2023/04/15 04:22:42;;;;;;;11.00;7.70;;;;;;;8.37;81.91;99111.42;129812;1264;115191;-66
2023/04/15 04:25:44;;;;;;;11.00;8.00;;;;;;;8.34;81.84;99115.71;129411;1282;115031;-66
2023/04/15 04:28:46;;;;;;;9.70;7.20;;;;;;;8.31;81.75;99118.92;129764;1264;114733;-66
2023/04/15 04:31:48;;;;;;;9.30;7.30;;;;;;;8.28;81.64;99125.14;129817;1258;114755;-66
2023/04/15 04:34:50;;;;;;;7.20;6.10;;;;;;;8.26;81.62;99131.51;129633;1260;116412;-66
2023/04/15 04:37:52;;;;;;;7.10;5.40;;;;;;;8.25;81.47;99133.17;129663;1261;114789;-65
2023/04/15 04:40:54;;;;;;;7.50;5.50;;;;;;;8.22;81.11;99130.29;129772;1261;114746;-66
2023/04/15 04:43:57;;;;;;;6.60;4.50;;;;;;;8.19;80.98;99133.81;129690;1263;114758;-67
2023/04/15 04:46:59;;;;;;;4.60;3.50;;;;;;;8.19;80.95;99139.50;129317;1282;114861;-66
2023/04/15 04:50:01;;;;;;;3.70;3.10;;;;;;;8.20;80.68;99147.65;129757;1275;114792;-65
2023/04/15 04:53:03;;;;;;;3.90;2.60;;;;;;;8.20;80.88;99148.34;129585;1261;128931;-67
2023/04/15 04:56:05;;;;;;;6.00;2.90;;;;;;;8.22;80.32;99145.61;129702;1264;114721;-67
2023/04/15 04:59:08;;;;;;;6.20;3.00;;;;;;;8.23;80.23;99142.70;129737;1258;114796;-67
2023/04/15 05:02:10;;;;;;;6.50;3.10;;;;;;;8.26;80.57;99145.17;129460;1266;115055;-66
2023/04/15 05:05:12;;;;;;;3.00;2.40;;;;;;;8.32;80.18;99150.56;129676;1263;115278;-66
2023/04/15 05:08:15;;;;;;;2.40;2.20;;;;;;;8.36;80.04;99145.32;129719;1264;114900;-66
2023/04/15 05:11:17;;;;;;;2.50;2.10;;;;;;;8.40;79.99;99144.34;129637;1282;114824;-65
2023/04/15 05:14:19;;;;;;;2.90;2.60;;;;;;;8.44;80.05;99146.08;129646;1261;114737;-67
2023/04/15 05:17:21;;;;;;;2.90;2.70;;;;;;;8.49;80.00;99142.61;129718;1263;115396;-65
2023/04/15 05:20:23;;;;;;;4.50;2.80;;;;;;;8.54;79.74;99154.97;129122;1282;115185;-66
2023/04/15 05:23:25;;;;;;;3.20;2.60;;;;;;;8.58;79.77;99163.61;129350;1282;115182;-65
2023/04/15 05:26:27;;;;;;;3.50;3.20;;;;;;;8.61;79.54;99164.88;129458;1260;114791;-64
2023/04/15 05:29:30;;;;;;;3.00;2.60;;;;;;;8.63;79.54;99159.42;129455;1272;114733;-67
2023/04/15 05:32:32;;;;;;;3.20;2.90;;;;;;;8.63;79.20;99161.20;129427;1277;114885;-67
2023/04/15 05:35:34;;;;;;;9.50;4.80;;;;;;;8.63;79.46;99167.77;129736;1277;114653;-66
2023/04/15 05:38:36;;;;;;;3.80;3.20;;;;;;;8.63;79.14;99179.33;129378;1282;128969;-66
2023/04/15 05:41:38;;;;;;;2.80;2.60;;;;;;;8.66;79.42;99180.94;129347;1264;115249;-65
2023/04/15 05:44:40;;;;;;;3.90;3.00;;;;;;;8.70;79.16;99182.48;129793;1264;115077;-66
2023/04/15 05:47:43;;;;;;;3.60;3.10;;;;;;;8.76;79.20;99183.35;129702;1282;114820;-66
2023/04/15 05:50:44;;;;;;;4.50;3.10;;;;;;;8.84;79.48;99190.71;129671;1264;114677;-66
2023/04/15 05:53:46;;;;;;;3.90;3.40;;;;;;;8.98;79.44;99194.18;129713;1261;114766;-65
2023/04/15 05:56:49;;;;;;;9.80;3.70;;;;;;;9.15;79.53;99196.70;129642;1262;114702;-64
2023/04/15 05:59:51;;;;;;;4.50;3.30;;;;;;;9.35;79.35;99201.70;129668;1263;114779;-66
2023/04/15 06:02:55;;;;;;;3.80;3.00;;;;;;;9.56;79.33;99203.63;129330;1259;115294;-66
2023/04/15 06:05:57;;;;;;;4.60;2.70;;;;;;;9.76;78.91;99207.71;129788;1263;115787;-67
2023/04/15 06:08:59;;;;;;;4.00;2.90;;;;;;;9.94;78.70;99210.64;129747;1264;115166;-66
2023/04/15 06:12:01;;;;;;;7.70;2.70;;;;;;;10.15;78.98;99213.92;129683;1264;114730;-65
2023/04/15 06:15:05;;;;;;;3.30;3.00;;;;;;;10.44;78.78;99216.52;129650;1282;114724;-66
2023/04/15 06:18:07;;;;;;;3.20;2.80;;;;;;;10.67;78.65;99219.09;129726;1261;114782;-66
2023/04/15 06:21:09;;;;;;;3.70;2.60;;;;;;;10.88;77.67;99216.63;129698;1260;114816;-64
2023/04/15 06:24:11;;;;;;;4.60;2.70;;;;;;;11.06;77.30;99218.27;129878;1273;115326;-66
2023/04/15 06:27:14;;;;;;;3.40;2.80;;;;;;;11.21;77.31;99218.14;129328;1261;114724;-66
2023/04/15 06:30:16;;;;;;;4.60;2.70;;;;;;;11.37;76.91;99220.93;129792;1263;114806;-66
2023/04/15 06:33:18;;;;;;;4.20;3.30;;;;;;;11.51;76.79;99221.98;129685;1264;114788;-67
2023/04/15 06:36:20;;;;;;;3.80;2.90;;;;;;;11.65;76.37;99220.04;129719;1263;114786;-67
2023/04/15 06:39:23;;;;;;;4.20;3.10;;;;;;;11.72;75.33;99225.09;129616;1261;129081;-66
2023/04/15 06:42:25;;;;;;;3.70;3.20;;;;;;;11.66;75.05;99229.48;129688;1260;114839;-65
2023/04/15 06:45:27;;;;;;;6.30;2.80;;;;;;;11.65;74.82;99230.41;129716;1264;114740;-67
2023/04/15 06:48:30;;;;;;;4.70;3.50;;;;;;;11.61;74.62;99230.52;129684;1282;114789;-67
2023/04/15 06:51:34;;;;;;;5.30;3.90;;;;;;;11.69;75.10;99236.05;129568;1263;114732;-67
2023/04/15 06:54:36;;;;;;;9.80;5.40;;;;;;;11.79;74.59;99235.32;129669;1266;114778;-67
2023/04/15 06:57:39;;;;;;;3.70;3.10;;;;;;;11.86;74.85;99239.52;129642;1282;114826;-65
2023/04/15 07:00:41;;;;;;;5.00;3.30;;;;;;;11.94;74.40;99239.46;129657;1261;114734;-66
2023/04/15 07:03:43;;;;;;;3.60;3.00;;;;;;;11.95;74.21;99244.16;129417;1261;115259;-64
2023/04/15 07:06:45;;;;;;;3.60;2.60;;;;;;;11.98;74.06;99240.63;129712;1264;115259;-68
2023/04/15 07:09:47;;;;;;;3.40;2.60;;;;;;;12.03;73.98;99247.79;129772;1271;114708;-67
2023/04/15 07:12:49;;;;;;;4.00;2.80;;;;;;;12.04;73.51;99257.23;129142;1267;115319;-65
2023/04/15 07:15:51;;;;;;;2.30;2.10;;;;;;;12.04;73.08;99261.51;129521;1260;114727;-65
2023/04/15 07:18:54;;;;;;;2.40;1.80;;;;;;;12.00;72.68;99263.92;129614;1282;114919;-63
2023/04/15 07:21:57;;;;;;;3.10;2.20;;;;;;;11.95;72.68;99264.59;129085;1270;128623;-67
2023/04/15 07:24:59;;;;;;;4.70;3.10;;;;;;;11.89;72.52;99268.45;129376;1263;114737;-65
2023/04/15 07:28:01;;;;;;;2.90;2.00;;;;;;;11.87;72.51;99271.95;129555;1263;114724;-67
2023/04/15 07:31:04;;;;;;;4.50;2.10;;;;;;;11.86;72.24;99273.64;129407;1264;115166;-65
2023/04/15 07:34:07;;;;;;;4.90;3.30;;;;;;;11.89;71.83;99276.71;129455;1260;114855;-63
2023/04/15 07:37:09;;;;;;;6.10;3.90;;;;;;;11.90;72.33;99281.59;129410;1282;114942;-67
2023/04/15 07:40:13;;;;;;;4.60;3.40;;;;;;;11.93;71.94;99275.48;129363;1260;114751;-64
2023/04/15 07:43:15;;;;;;;2.20;2.00;;;;;;;12.00;71.71;99278.23;129196;1277;128075;-65
2023/04/15 07:46:18;;;;;;;4.10;2.90;;;;;;;12.07;71.48;99274.88;129387;1263;115192;-65
2023/04/15 07:49:20;;;;;;;4.80;2.60;;;;;;;12.17;71.17;99266.82;129427;1260;114767;-67
2023/04/15 07:52:22;;;;;;;2.90;2.00;;;;;;;12.21;70.78;99271.17;129541;1282;114917;-66
2023/04/15 07:55:25;;;;;;;2.10;1.60;;;;;;;12.31;70.67;99271.70;129233;1266;114806;-67
2023/04/15 07:58:28;;;;;;;1.70;1.60;;;;;;;12.44;70.51;99273.65;129429;1260;114712;-62
2023/04/15 08:01:31;;;;;;;2.80;2.40;;;;;;;12.55;69.56;99277.80;129527;1263;115149;-63
2023/04/15 08:04:33;;;;;;;1.90;1.40;;;;;;;12.65;69.38;99279.96;129495;1263;114746;-67
2023/04/15 08:07:37;;;;;;;2.60;1.70;;;;;;;12.81;69.07;99289.50;129749;1270;114747;-62
2023/04/15 08:10:39;;;;;;;0.90;0.80;;;;;;;12.94;69.03;99292.31;129750;1260;115020;-64
2023/04/15 08:13:43;;;;;;;1.30;0.90;;;;;;;13.02;68.08;99290.81;129400;1276;114791;-62
2023/04/15 08:16:45;;;;;;;1.60;1.30;;;;;;;13.14;68.15;99297.10;129368;1260;114719;-63
2023/04/15 08:19:48;;;;;;;2.10;1.40;;;;;;;13.30;68.10;99304.98;129457;1263;114702;-63
2023/04/15 08:22:51;;;;;;;2.50;1.00;;;;;;;13.51;67.88;99307.17;129706;1263;115172;-62
2023/04/15 08:25:53;;;;;;;1.10;1.00;;;;;;;13.81;68.12;99312.36;129211;1261;115272;-63
2023/04/15 08:28:56;;;;;;;1.80;1.20;;;;;;;14.26;67.85;99307.73;129491;1261;114756;-63
2023/04/15 08:32:00;;;;;;;1.30;1.00;;;;;;;14.74;67.03;99305.98;129479;1260;115252;-63
2023/04/15 08:35:03;;;;;;;3.00;1.20;;;;;;;15.28;65.95;99304.95;129422;1282;114737;-63
2023/04/15 08:38:05;;;;;;;1.30;1.10;;;;;;;15.75;65.31;99314.59;129399;1264;114810;-64
2023/04/15 08:41:12;;;;;;;1.00;0.90;;;;;;;16.03;64.24;99313.62;129365;1263;114740;-64
2023/04/15 08:44:14;;;;;;;1.50;0.90;;;;;;;16.35;63.11;99318.95;129413;1261;115246;-64
2023/04/15 08:47:20;;;;;;;1.30;1.10;;;;;;;16.61;63.66;99314.98;129474;1263;114723;-65
2023/04/15 08:50:24;;;;;;;1.80;1.40;;;;;;;16.84;62.77;99317.45;129205;1262;114861;-65
2023/04/15 08:53:28;;;;;;;1.50;1.00;;;;;;;17.06;62.15;99322.44;129441;1262;115111;-64
2023/04/15 08:56:32;;;;;;;1.60;1.50;;;;;;;17.11;60.35;99326.88;129426;1261;128413;-65
2023/04/15 08:59:34;;;;;;;0.90;0.70;;;;;;;17.10;60.17;99320.61;129582;1264;115265;-65
2023/04/15 09:02:37;;;;;;;2.90;0.80;;;;;;;17.10;59.02;99319.92;129461;1263;114728;-66
2023/04/15 09:05:41;;;;;;;3.10;1.20;;;;;;;17.08;59.38;99325.16;129879;1263;115169;-65
2023/04/15 09:08:43;;;;;;;1.40;1.30;;;;;;;17.17;59.41;99323.12;129637;1282;115201;-67
2023/04/15 09:11:46;;;;;;;0.70;0.70;;;;;;;17.26;59.10;99321.02;129275;1260;114714;-65
2023/04/15 09:14:48;;;;;;;0.80;0.70;;;;;;;17.36;58.47;99322.41;129454;1264;114785;-66
2023/04/15 09:17:51;;;;;;;3.20;2.20;;;;;;;17.42;57.95;99320.89;129856;1260;115249;-66
2023/04/15 09:21:10;;;;;;;1.00;0.80;;;;;;;17.50;57.91;99320.94;129548;1265;115250;-65
2023/04/15 09:24:12;;;;;;;0.60;0.60;;;;;;;17.58;56.78;99328.08;129705;1264;114776;-66
2023/04/15 09:27:16;;;;;;;0.90;0.70;;;;;;;17.60;57.48;99325.73;129782;1264;115381;-66
2023/04/15 09:30:18;;;;;;;3.20;0.60;;;;;;;17.70;56.80;99326.06;129552;1281;114793;-65
2023/04/15 09:33:21;;;;;;;0.70;0.70;;;;;;;17.69;56.10;99329.44;129104;1263;114878;-65
2023/04/15 09:36:24;;;;;;;0.50;0.50;;;;;;;17.54;55.61;99336.02;129325;1258;114812;-63
2023/04/15 09:39:26;;;;;;;0.90;0.60;;;;;;;17.39;56.02;99338.54;129428;1263;114730;-64
2023/04/15 09:42:28;;;;;;;0.60;0.50;;;;;;;17.34;55.94;99339.20;129294;1261;114705;-64
2023/04/15 09:45:32;;;;;;;3.20;0.60;;;;;;;17.19;55.41;99336.98;129369;1263;114737;-64
2023/04/15 09:48:35;;;;;;;0.80;0.80;;;;;;;16.98;54.24;99334.73;129941;1264;115125;-65
2023/04/15 09:51:38;;;;;;;1.70;0.70;;;;;;;16.75;54.28;99342.05;129357;1263;114711;-66
2023/04/15 09:54:40;;;;;;;0.90;0.70;;;;;;;16.60;54.51;99349.52;129686;1263;115182;-66
2023/04/15 09:57:46;;;;;;;0.50;0.50;;;;;;;16.47;54.61;99353.39;129740;1261;114715;-63
2023/04/15 10:00:49;;;;;;;1.20;0.80;;;;;;;16.39;54.98;99352.04;129582;1259;114787;-66
2023/04/15 10:03:51;;;;;;;1.20;0.80;;;;;;;16.32;54.70;99354.45;129679;1266;115122;-66
2023/04/15 10:06:53;;;;;;;1.00;0.70;;;;;;;16.30;54.99;99350.36;129820;1263;114791;-66
2023/04/15 10:09:57;;;;;;;0.60;0.50;;;;;;;16.44;54.68;99356.51;129875;1276;115217;-65
2023/04/15 10:13:01;;;;;;;2.40;0.60;;;;;;;16.52;54.10;99358.09;129779;1260;114724;-63
2023/04/15 10:16:11;;;;;;;1.80;0.70;;;;;;;16.59;54.26;99358.10;129337;1261;114785;-64
2023/04/15 10:19:15;;;;;;;0.80;0.70;;;;;;;16.69;54.15;99359.55;129497;1268;114891;-66
2023/04/15 10:22:17;;;;;;;1.20;0.90;;;;;;;16.80;53.88;99354.90;129958;1263;114795;-64
2023/04/15 10:25:19;;;;;;;2.10;1.60;;;;;;;16.81;53.66;99352.13;129877;1264;114751;-66
2023/04/15 10:28:22;;;;;;;0.90;0.60;;;;;;;16.76;53.29;99354.04;129843;1261;114753;-67
2023/04/15 10:31:24;;;;;;;1.60;0.90;;;;;;;16.68;53.40;99353.30;129347;1274;115258;-67
2023/04/15 10:34:27;;;;;;;0.60;0.60;;;;;;;16.65;53.60;99353.04;129913;1263;114817;-65
2023/04/15 10:37:37;;;;;;;1.00;0.50;;;;;;;16.76;53.83;99353.49;129922;1259;114779;-66
2023/04/15 10:40:40;;;;;;;0.60;0.60;;;;;;;16.74;52.97;99354.52;129893;1263;115169;-64
2023/04/15 10:43:53;;;;;;;0.80;0.70;;;;;;;16.61;52.53;99356.39;129744;1264;114740;-64
2023/04/15 10:46:57;;;;;;;0.90;0.70;;;;;;;16.47;52.75;99358.38;129814;1261;115233;-66
2023/04/15 10:50:01;;;;;;;0.90;0.70;;;;;;;16.42;52.96;99364.27;129410;1263;114744;-66
2023/04/15 10:53:04;;;;;;;0.60;0.40;;;;;;;16.38;52.48;99364.77;129304;1261;114865;-66
2023/04/15 10:56:06;;;;;;;0.70;0.60;;;;;;;16.32;52.77;99366.78;129534;1264;114796;-67
2023/04/15 10:59:10;;;;;;;0.70;0.70;;;;;;;16.40;53.27;99373.75;129345;1280;114774;-64
2023/04/15 11:02:12;;;;;;;1.50;0.70;;;;;;;16.50;52.81;99376.38;129392;1274;115227;-65
2023/04/15 11:05:16;;;;;;;1.20;0.50;;;;;;;16.63;52.60;99374.47;129395;1263;114814;-64
2023/04/15 11:08:19;;;;;;;0.90;0.60;;;;;;;16.69;52.08;99365.95;129942;1262;114754;-65
2023/04/15 11:11:21;;;;;;;0.50;0.50;;;;;;;16.75;51.75;99371.95;129929;1264;114673;-71
2023/04/15 11:14:23;;;;;;;1.70;0.50;;;;;;;16.77;51.29;99369.27;130020;1279;114759;-63
2023/04/15 11:17:29;;;;;;;0.50;0.50;;;;;;;16.83;51.90;99376.06;129528;1263;128436;-64
2023/04/15 11:20:32;;;;;;;1.50;0.60;;;;;;;16.95;51.78;99364.76;129410;1266;115253;-63
2023/04/15 11:23:42;;;;;;;0.60;0.40;;;;;;;17.15;51.77;99367.08;130019;1263;114743;-63
2023/04/15 11:26:44;;;;;;;3.60;2.40;;;;;;;17.40;50.85;99376.02;129840;1261;116685;-64
2023/04/15 11:29:46;;;;;;;0.50;0.50;;;;;;;17.45;50.41;99382.03;129372;1264;114785;-65
2023/04/15 11:32:49;;;;;;;0.60;0.50;;;;;;;17.61;50.94;99381.08;129606;1279;114826;-66
2023/04/15 11:35:55;;;;;;;0.40;0.40;;;;;;;17.83;50.45;99377.39;129736;1262;114730;-68
2023/04/15 11:38:59;;;;;;;0.40;0.40;;;;;;;18.13;50.87;99382.38;129056;1267;114996;-68
2023/04/15 11:42:02;;;;;;;1.20;0.60;;;;;;;18.44;50.50;99385.86;129755;1260;114958;-66
2023/04/15 11:45:13;;;;;;;0.70;0.50;;;;;;;18.53;48.89;99383.73;129805;1262;114911;-68
2023/04/15 11:48:17;;;;;;;1.10;0.50;;;;;;;18.50;49.38;99381.49;129754;1282;129238;-69
2023/04/15 11:51:21;;;;;;;0.50;0.40;;;;;;;18.53;48.90;99381.96;129959;1262;115208;-72
2023/04/15 11:54:24;;;;;;;0.50;0.50;;;;;;;18.47;48.69;99387.18;129595;1266;114865;-72
2023/04/15 11:57:31;;;;;;;0.50;0.40;;;;;;;18.41;48.83;99395.92;129830;1263;114782;-67
2023/04/15 12:00:33;;;;;;;0.50;0.50;;;;;;;18.30;48.50;99397.96;129906;1261;114921;-78
2023/04/15 12:03:37;;;;;;;1.00;0.50;;;;;;;18.22;48.57;99399.24;129965;1262;114747;-73
2023/04/15 12:06:40;;;;;;;0.70;0.70;;;;;;;18.15;48.56;99403.02;129786;1261;115179;-73
2023/04/15 12:09:42;;;;;;;0.80;0.70;;;;;;;18.04;48.51;99402.86;129937;1263;115105;-65
2023/04/15 12:12:48;;;;;;;0.70;0.60;;;;;;;17.93;48.47;99409.20;129889;1281;115122;-76
2023/04/15 12:15:50;;;;;;;1.20;0.60;;;;;;;17.81;48.48;99413.73;130083;1264;114752;-74
2023/04/15 12:18:55;;;;;;;1.30;0.70;;;;;;;17.69;48.43;99408.48;129925;1261;114776;-73
2023/04/15 12:22:05;;;;;;;0.50;0.50;;;;;;;17.53;48.42;99414.76;129855;1266;115400;-79
2023/04/15 12:25:13;;;;;;;0.90;0.90;;;;;;;17.46;48.48;99415.48;129891;1264;115031;-70
2023/04/15 12:28:16;;;;;;;0.50;0.50;;;;;;;17.44;48.41;99417.89;129865;1282;114785;-64
2023/04/15 12:31:18;;;;;;;0.60;0.60;;;;;;;17.50;48.28;99416.30;129900;1264;114733;-64
2023/04/15 12:34:31;;;;;;;0.70;0.60;;;;;;;17.50;48.00;99419.17;130019;1263;115092;-64
2023/04/15 12:37:33;;;;;;;0.30;0.30;;;;;;;17.52;48.02;99419.88;129515;1263;116372;-74
2023/04/15 12:40:35;;;;;;;1.00;0.70;;;;;;;17.52;47.49;99417.71;129612;1263;115734;-77
2023/04/15 12:43:37;;;;;;;0.50;0.50;;;;;;;17.46;46.86;99416.77;129701;1280;114725;-64
2023/04/15 12:46:40;;;;;;;1.50;0.80;;;;;;;17.37;46.36;99417.80;129767;1264;114824;-69
2023/04/15 12:49:42;;;;;;;0.50;0.50;;;;;;;17.31;46.69;99417.05;129865;1271;115161;-67
2023/04/15 12:52:44;;;;;;;1.30;0.70;;;;;;;17.32;46.64;99419.11;129890;1261;114820;-64
2023/04/15 12:55:47;;;;;;;3.90;0.50;;;;;;;17.36;46.72;99422.97;129680;1261;128030;-64
2023/04/15 12:58:50;;;;;;;1.80;1.20;;;;;;;17.42;47.02;99426.16;129873;1264;114770;-65
2023/04/15 13:01:52;;;;;;;1.10;1.00;;;;;;;17.48;46.59;99423.33;129914;1263;114711;-63
2023/04/15 13:04:55;;;;;;;1.10;0.50;;;;;;;17.39;46.41;99416.69;129632;1261;115160;-64
2023/04/15 13:07:57;;;;;;;1.10;0.60;;;;;;;17.36;46.47;99421.16;129522;1266;114989;-72
2023/04/15 13:10:59;;;;;;;0.50;0.50;;;;;;;17.41;47.07;99424.04;129582;1267;114925;-69
2023/04/15 13:14:03;;;;;;;2.60;0.70;;;;;;;17.44;46.97;99422.56;129600;1284;114906;-68
2023/04/15 13:17:09;;;;;;;0.50;0.50;;;;;;;17.45;46.74;99424.78;129664;1262;128842;-68
2023/04/15 13:20:11;;;;;;;0.70;0.60;;;;;;;17.45;47.08;99427.49;129336;1269;115319;-68
2023/04/15 13:23:14;;;;;;;0.60;0.60;;;;;;;17.47;46.94;99423.92;129593;1282;237397;-67
2023/04/15 13:26:17;;;;;;;0.80;0.60;;;;;;;17.50;47.27;99432.14;129822;1264;115137;-68
2023/04/15 13:29:22;;;;;;;1.00;0.90;;;;;;;17.47;46.82;99432.90;129843;1264;114810;-66
2023/04/15 13:32:25;;;;;;;0.60;0.60;;;;;;;17.49;47.26;99433.81;129846;1262;114779;-66
2023/04/15 13:35:27;;;;;;;0.60;0.60;;;;;;;17.54;46.82;99425.41;129847;1263;114723;-66
2023/04/15 13:38:29;;;;;;;1.40;0.80;;;;;;;17.49;46.28;99423.76;129876;1271;115095;-64
2023/04/15 13:41:31;;;;;;;0.80;0.80;;;;;;;17.44;46.53;99425.58;129834;1279;114749;-66
2023/04/15 13:44:33;;;;;;;0.90;0.90;;;;;;;17.48;46.31;99426.00;129823;1273;115211;-66
2023/04/15 13:47:35;;;;;;;1.10;0.90;;;;;;;17.46;46.14;99426.86;129862;1263;114736;-63
2023/04/15 13:50:37;;;;;;;0.60;0.60;;;;;;;17.44;46.21;99420.34;129879;1282;114791;-63
2023/04/15 13:53:39;;;;;;;0.80;0.70;;;;;;;17.41;46.03;99419.02;129306;1259;114773;-63
2023/04/15 13:56:41;;;;;;;1.30;1.20;;;;;;;17.33;46.17;99415.45;129944;1263;114740;-63